Time;durP1;ratioP1;P1;durP2;ratioP2;P2;SDS_P1;SDS_P2;PMS_P1;PMS_P2;Temp;Humidity;BMP_temperature;BMP_pressure;BME280_temperature;BME280_humidity;BME280_pressure;Samples;Min_cycle;Max_cycle;Signal;HPM_P1;HPM_P2
2022/04/24 00:02:06;;;;;;;10.25;9.00;;;;;;;10.86;78.14;100260.91;1744627;81;20846;-80
2022/04/24 00:04:33;;;;;;;11.65;9.70;;;;;;;10.88;78.09;100255.56;1744497;81;21587;-79
2022/04/24 00:07:01;;;;;;;10.00;8.35;;;;;;;10.90;78.10;100245.81;1744716;81;21532;-80
2022/04/24 00:09:28;;;;;;;12.45;9.28;;;;;;;10.90;77.84;100233.53;1744478;81;21242;-80
2022/04/24 00:11:57;;;;;;;10.13;8.38;;;;;;;10.91;77.65;100235.67;1744476;82;20845;-79
2022/04/24 00:14:25;;;;;;;9.00;8.20;;;;;;;10.91;77.61;100252.25;1744720;81;21402;-80
2022/04/24 00:16:53;;;;;;;9.75;8.75;;;;;;;10.96;77.64;100265.05;1744722;81;20909;-79
2022/04/24 00:19:21;;;;;;;10.75;9.10;;;;;;;11.00;77.46;100274.40;1744851;81;20896;-79
2022/04/24 00:21:49;;;;;;;9.38;8.53;;;;;;;11.03;77.39;100289.95;1744820;81;21229;-79
2022/04/24 00:24:15;;;;;;;10.75;9.25;;;;;;;11.06;77.28;100298.09;1745316;81;21339;-79
2022/04/24 00:26:43;;;;;;;12.63;10.23;;;;;;;11.09;77.23;100290.00;1744764;81;20928;-79
2022/04/24 00:29:09;;;;;;;10.40;9.00;;;;;;;11.10;77.04;100282.03;1744797;81;21513;-79
2022/04/24 00:31:37;;;;;;;9.78;8.70;;;;;;;11.14;76.84;100283.98;1744889;81;20928;-78
2022/04/24 00:34:04;;;;;;;11.90;10.45;;;;;;;11.16;76.71;100276.82;1745385;81;21221;-80
2022/04/24 00:36:31;;;;;;;10.55;8.58;;;;;;;11.19;76.63;100280.57;1746093;81;20964;-79
2022/04/24 00:38:58;;;;;;;9.65;8.73;;;;;;;11.22;76.45;100275.58;1746479;81;20940;-80
2022/04/24 00:41:25;;;;;;;12.33;9.00;;;;;;;11.20;76.35;100262.55;1747047;81;20945;-76
2022/04/24 00:43:52;;;;;;;10.32;8.78;;;;;;;11.19;76.16;100258.27;1746990;81;21054;-76
2022/04/24 00:46:57;;;;;;;9.95;8.95;;;;;;;11.15;76.20;100256.30;1745084;81;21252;-80
2022/04/24 00:49:24;;;;;;;8.85;7.95;;;;;;;11.11;76.26;100243.50;1744465;82;20979;-80
2022/04/24 00:51:52;;;;;;;10.35;9.13;;;;;;;11.08;76.38;100250.28;1755324;80;21497;-79
2022/04/24 00:54:19;;;;;;;11.65;10.45;;;;;;;11.04;76.39;100240.45;1757825;81;20872;-80
2022/04/24 00:56:47;;;;;;;10.03;9.03;;;;;;;11.03;76.38;100235.30;1758093;81;20888;-79
2022/04/24 00:59:14;;;;;;;9.93;8.93;;;;;;;11.01;76.36;100234.59;1757895;80;21256;-79
2022/04/24 01:01:41;;;;;;;8.83;8.03;;;;;;;10.97;76.31;100236.09;1757866;81;21501;-79
2022/04/24 01:04:10;;;;;;;10.58;8.65;;;;;;;10.97;76.25;100232.16;1757815;81;20880;-79
2022/04/24 01:06:41;;;;;;;10.53;8.88;;;;;;;10.98;76.16;100234.30;1757935;81;20952;-80
2022/04/24 01:09:13;;;;;;;8.78;8.03;;;;;;;10.97;76.04;100225.60;1758042;81;20861;-79
2022/04/24 01:11:40;;;;;;;9.55;7.95;;;;;;;10.97;75.95;100214.27;1758053;81;21462;-79
2022/04/24 01:14:07;;;;;;;10.20;8.05;;;;;;;10.95;75.83;100210.91;1758098;80;20892;-80
2022/04/24 01:16:35;;;;;;;9.58;8.58;;;;;;;10.97;75.69;100210.34;1759348;81;20964;-77
2022/04/24 01:19:05;;;;;;;8.50;7.42;;;;;;;10.97;75.54;100212.96;1758566;80;20940;-79
2022/04/24 01:21:33;;;;;;;8.95;8.03;;;;;;;10.98;75.43;100207.63;1758052;81;20900;-79
2022/04/24 01:23:59;;;;;;;10.95;7.97;;;;;;;10.99;75.27;100209.28;1758119;80;21876;-79
2022/04/24 01:26:26;;;;;;;8.75;7.95;;;;;;;11.02;75.16;100217.89;1758183;81;20889;-80
2022/04/24 01:28:54;;;;;;;9.53;8.55;;;;;;;11.05;74.98;100217.22;1758041;81;21445;-80
2022/04/24 01:31:22;;;;;;;8.28;7.47;;;;;;;11.06;74.89;100215.44;1757851;80;20956;-80
2022/04/24 01:33:49;;;;;;;8.58;7.47;;;;;;;11.06;74.70;100212.33;1758065;81;20857;-77
2022/04/24 01:36:16;;;;;;;9.35;7.92;;;;;;;11.08;74.48;100214.86;1757974;81;21193;-79
2022/04/24 01:38:45;;;;;;;8.78;7.87;;;;;;;11.10;74.37;100202.47;1757966;81;20967;-79
2022/04/24 01:41:11;;;;;;;8.35;7.55;;;;;;;11.11;74.29;100196.27;1758356;81;20983;-80
2022/04/24 01:43:38;;;;;;;9.03;8.13;;;;;;;11.12;74.14;100197.48;1758105;81;20975;-79
2022/04/24 01:46:07;;;;;;;8.50;7.35;;;;;;;11.13;73.96;100197.00;1757945;80;20944;-79
2022/04/24 01:48:33;;;;;;;9.40;8.40;;;;;;;11.11;73.88;100183.98;1758219;80;21111;-79
2022/04/24 01:51:03;;;;;;;9.25;8.43;;;;;;;11.11;73.80;100189.22;1753725;80;20897;-78
2022/04/24 01:53:32;;;;;;;8.38;7.67;;;;;;;11.09;73.71;100179.78;1744676;82;20980;-78
2022/04/24 01:56:01;;;;;;;9.30;8.45;;;;;;;11.08;73.73;100184.20;1745118;81;20941;-78
2022/04/24 01:58:28;;;;;;;10.35;8.60;;;;;;;11.07;73.78;100186.92;1744746;81;20889;-78
2022/04/24 02:00:56;;;;;;;8.13;7.33;;;;;;;11.06;73.77;100187.88;1745843;81;20888;-78
2022/04/24 02:03:24;;;;;;;9.28;8.23;;;;;;;11.06;73.81;100182.63;1744788;81;20925;-79
2022/04/24 02:05:52;;;;;;;9.08;8.13;;;;;;;11.05;73.87;100177.86;1744562;81;21481;-78
2022/04/24 02:08:19;;;;;;;9.15;7.90;;;;;;;11.06;73.85;100177.38;1744653;82;20936;-79
2022/04/24 02:10:46;;;;;;;10.50;7.53;;;;;;;11.04;73.83;100173.55;1744715;81;20897;-78
2022/04/24 02:13:15;;;;;;;9.68;8.78;;;;;;;11.03;73.85;100171.88;1744723;81;20925;-78
2022/04/24 02:15:41;;;;;;;10.75;8.63;;;;;;;11.03;73.87;100169.25;1744824;81;20968;-78
2022/04/24 02:18:09;;;;;;;8.98;7.47;;;;;;;11.06;73.88;100164.27;1744690;82;20956;-78
2022/04/24 02:20:36;;;;;;;8.50;7.62;;;;;;;11.07;73.82;100160.68;1744509;81;20900;-78
2022/04/24 02:23:03;;;;;;;10.00;7.70;;;;;;;11.08;73.76;100166.31;1744747;81;20901;-78
2022/04/24 02:25:30;;;;;;;9.65;8.75;;;;;;;11.09;73.68;100168.81;1744746;81;21133;-79
2022/04/24 02:27:58;;;;;;;8.83;8.03;;;;;;;11.09;73.56;100162.73;1744606;81;20916;-78
2022/04/24 02:30:28;;;;;;;8.70;7.90;;;;;;;11.08;73.52;100167.62;1744648;81;20833;-78
2022/04/24 02:32:58;;;;;;;9.78;8.78;;;;;;;11.05;73.47;100166.05;1744923;81;20920;-78
2022/04/24 02:35:25;;;;;;;9.20;8.35;;;;;;;11.02;73.55;100163.63;1744776;82;20945;-78
2022/04/24 02:37:52;;;;;;;9.85;8.83;;;;;;;10.99;73.59;100171.72;1744664;81;21283;-79
2022/04/24 02:40:22;;;;;;;9.20;8.10;;;;;;;10.97;73.74;100174.44;1744541;82;20873;-79
2022/04/24 02:42:52;;;;;;;9.23;8.28;;;;;;;10.95;73.80;100175.02;1744710;80;20945;-79
2022/04/24 02:45:20;;;;;;;10.53;8.25;;;;;;;10.94;73.97;100190.41;1745672;81;20941;-78
2022/04/24 02:47:47;;;;;;;9.70;8.43;;;;;;;10.93;74.03;100193.13;1744932;82;20865;-79
2022/04/24 02:50:15;;;;;;;8.95;8.05;;;;;;;10.93;74.12;100197.89;1744883;81;21173;-80
2022/04/24 02:52:53;;;;;;;8.98;7.60;;;;;;;10.91;74.14;100190.59;1756397;81;20975;-79
2022/04/24 02:55:20;;;;;;;8.50;7.62;;;;;;;10.92;74.17;100195.39;1758319;81;20888;-80
2022/04/24 02:57:46;;;;;;;9.40;8.60;;;;;;;10.91;74.18;100210.75;1758085;81;20935;-78
2022/04/24 03:00:24;;;;;;;9.85;8.85;;;;;;;10.91;74.30;100211.58;1758138;81;20979;-78
2022/04/24 03:02:54;;;;;;;8.53;7.70;;;;;;;10.90;74.41;100216.95;1758106;81;21258;-78
2022/04/24 03:05:22;;;;;;;10.55;9.63;;;;;;;10.88;74.36;100222.30;1758268;81;21002;-78
2022/04/24 03:07:51;;;;;;;9.50;8.60;;;;;;;10.85;74.42;100217.72;1758291;81;20982;-78
2022/04/24 03:10:19;;;;;;;10.23;8.30;;;;;;;10.84;74.46;100218.20;1758228;81;20896;-79
2022/04/24 03:12:47;;;;;;;10.70;9.65;;;;;;;10.85;74.53;100223.83;1758092;80;20881;-78
2022/04/24 03:15:15;;;;;;;8.65;7.75;;;;;;;10.86;74.57;100231.22;1757988;81;21342;-78
2022/04/24 03:17:43;;;;;;;8.83;8.03;;;;;;;10.86;74.63;100235.16;1758008;80;20990;-80
2022/04/24 03:20:11;;;;;;;10.65;8.45;;;;;;;10.85;74.66;100232.14;1758136;81;20869;-78
2022/04/24 03:22:39;;;;;;;9.15;8.33;;;;;;;10.86;74.64;100243.85;1758022;81;20912;-79
2022/04/24 03:25:09;;;;;;;9.58;8.58;;;;;;;10.85;74.63;100243.50;1758087;81;20896;-80
2022/04/24 03:27:39;;;;;;;9.73;8.63;;;;;;;10.86;74.68;100238.61;1758020;80;21413;-78
2022/04/24 03:30:09;;;;;;;10.38;8.85;;;;;;;10.86;74.67;100246.95;1759070;80;20857;-79
2022/04/24 03:32:35;;;;;;;10.28;9.30;;;;;;;10.85;74.78;100241.33;1758172;81;20931;-79
2022/04/24 03:35:09;;;;;;;11.08;8.58;;;;;;;10.85;74.79;100248.75;1757988;80;21041;-78
2022/04/24 03:37:38;;;;;;;9.65;8.43;;;;;;;10.86;74.84;100251.72;1758368;81;20849;-78
2022/04/24 03:40:06;;;;;;;9.05;8.10;;;;;;;10.88;74.81;100250.31;1757908;80;21207;-77
2022/04/24 03:42:35;;;;;;;8.85;8.05;;;;;;;10.90;74.87;100247.95;1757965;80;20935;-79
2022/04/24 03:45:11;;;;;;;10.03;9.20;;;;;;;10.91;74.84;100248.78;1758155;81;20975;-79
2022/04/24 03:47:33;;;;;;;11.53;9.23;;;;;;;10.93;74.86;100246.91;1756642;81;20944;-80
2022/04/24 03:50:02;;;;;;;10.50;9.50;;;;;;;10.95;74.78;100256.34;1757966;81;20955;-79
2022/04/24 03:52:30;;;;;;;10.90;9.63;;;;;;;10.98;74.77;100246.11;1749030;80;21158;-79
2022/04/24 03:54:57;;;;;;;10.98;9.88;;;;;;;11.02;74.78;100249.38;1744594;81;21351;-79
2022/04/24 03:57:24;;;;;;;10.75;9.75;;;;;;;11.08;74.81;100243.24;1746280;82;20976;-80
2022/04/24 03:59:52;;;;;;;11.68;10.40;;;;;;;11.12;74.56;100244.72;1746746;82;20992;-79
2022/04/24 04:02:18;;;;;;;12.30;10.93;;;;;;;11.17;74.39;100250.97;1747032;81;20854;-77
2022/04/24 04:04:46;;;;;;;10.88;9.48;;;;;;;11.27;74.50;100247.22;1746965;81;20877;-78
2022/04/24 04:07:13;;;;;;;9.90;8.83;;;;;;;11.47;74.42;100247.16;1745776;80;20941;-80
2022/04/24 04:09:39;;;;;;;10.28;9.25;;;;;;;11.73;73.97;100257.98;1744870;81;21040;-80
2022/04/24 04:12:08;;;;;;;10.00;8.40;;;;;;;12.02;73.19;100264.30;1744997;81;20897;-77
2022/04/24 04:14:36;;;;;;;9.43;8.45;;;;;;;12.28;72.29;100256.33;1745860;82;20853;-82
2022/04/24 04:17:04;;;;;;;8.43;7.60;;;;;;;12.50;71.57;100263.48;1744941;80;21962;-80
2022/04/24 04:19:30;;;;;;;8.58;7.78;;;;;;;12.71;70.83;100253.15;1744731;81;21016;-78
2022/04/24 04:21:58;;;;;;;10.88;8.35;;;;;;;12.92;70.18;100259.92;1744742;81;20830;-80
2022/04/24 04:24:27;;;;;;;9.70;8.80;;;;;;;13.08;69.60;100263.06;1744793;81;21335;-79
2022/04/24 04:26:53;;;;;;;9.55;8.65;;;;;;;13.26;69.01;100260.81;1744817;81;20948;-79
2022/04/24 04:29:20;;;;;;;9.23;8.43;;;;;;;13.44;68.38;100261.20;1745121;80;21053;-80
2022/04/24 04:31:48;;;;;;;9.13;8.33;;;;;;;13.62;67.36;100270.78;1744652;81;20940;-80
2022/04/24 04:34:16;;;;;;;9.35;8.40;;;;;;;13.72;66.76;100272.20;1744790;81;20932;-80
2022/04/24 04:36:43;;;;;;;9.25;8.45;;;;;;;13.73;66.31;100276.53;1744628;81;20944;-79
2022/04/24 04:39:09;;;;;;;9.50;8.60;;;;;;;13.71;66.19;100270.06;1744990;81;20857;-80
2022/04/24 04:41:37;;;;;;;9.00;8.05;;;;;;;13.71;66.43;100275.33;1744698;81;20912;-79
2022/04/24 04:44:05;;;;;;;8.75;7.95;;;;;;;13.73;66.20;100275.22;1744635;80;20885;-81
2022/04/24 04:46:32;;;;;;;9.60;8.78;;;;;;;13.71;66.23;100266.11;1744519;80;21367;-80
2022/04/24 04:48:59;;;;;;;8.93;8.03;;;;;;;13.74;66.16;100267.20;1744552;81;20936;-79
2022/04/24 04:51:26;;;;;;;8.88;8.10;;;;;;;13.91;66.10;100267.16;1745847;80;21339;-80
2022/04/24 04:53:55;;;;;;;8.78;7.97;;;;;;;14.20;65.72;100269.27;1758038;81;21145;-79
2022/04/24 04:56:23;;;;;;;9.25;8.50;;;;;;;14.50;65.24;100269.89;1758155;80;20940;-78
2022/04/24 04:58:51;;;;;;;8.70;7.95;;;;;;;14.74;64.09;100265.75;1758990;81;21086;-79
2022/04/24 05:01:17;;;;;;;8.50;7.70;;;;;;;14.89;63.39;100267.08;1757846;81;20947;-81
2022/04/24 05:06:31;;;;;;;7.67;6.97;;;;;;;15.44;62.48;100260.73;1798741;79;23939;-80
2022/04/24 05:09:00;;;;;;;7.75;7.05;;;;;;;15.86;61.43;100265.93;1758591;80;20892;-79
2022/04/24 05:11:28;;;;;;;8.98;7.72;;;;;;;16.40;59.84;100273.88;1758534;81;21508;-80
2022/04/24 05:13:58;;;;;;;7.78;7.08;;;;;;;16.95;58.47;100270.70;1758358;81;21373;-79
2022/04/24 05:16:24;;;;;;;8.15;7.28;;;;;;;17.47;56.84;100281.70;1758523;80;20971;-79
2022/04/24 05:18:53;;;;;;;7.95;7.15;;;;;;;17.96;55.56;100281.05;1758449;81;20940;-78
2022/04/24 05:21:20;;;;;;;8.53;7.70;;;;;;;18.44;54.20;100284.36;1758400;80;20928;-79
2022/04/24 05:23:52;;;;;;;7.47;6.78;;;;;;;18.84;52.76;100275.11;1758989;81;20880;-79
2022/04/24 05:26:19;;;;;;;6.47;5.92;;;;;;;19.15;51.53;100271.52;1757730;80;20876;-79
2022/04/24 05:28:47;;;;;;;6.37;5.85;;;;;;;19.48;51.03;100271.71;1758765;80;21354;-79
2022/04/24 05:31:16;;;;;;;8.63;7.67;;;;;;;19.97;50.26;100267.13;1758416;81;21385;-80
2022/04/24 05:33:44;;;;;;;6.87;6.20;;;;;;;20.41;48.63;100264.19;1758713;81;20928;-81
2022/04/24 05:36:13;;;;;;;7.45;6.75;;;;;;;20.72;48.02;100264.44;1758653;81;21265;-80
2022/04/24 05:38:44;;;;;;;7.10;6.40;;;;;;;20.99;46.57;100262.42;1758563;81;20967;-80
2022/04/24 05:41:12;;;;;;;7.37;6.45;;;;;;;21.16;45.72;100264.03;1759459;81;20986;-79
2022/04/24 05:43:39;;;;;;;7.12;6.47;;;;;;;21.32;45.84;100263.16;1758970;81;20869;-79
2022/04/24 05:46:06;;;;;;;6.90;6.20;;;;;;;21.49;44.41;100265.32;1758660;81;20837;-80
2022/04/24 05:48:34;;;;;;;6.53;5.92;;;;;;;21.49;44.39;100265.32;1758590;81;20984;-81
2022/04/24 05:51:01;;;;;;;10.05;6.42;;;;;;;21.51;43.84;100267.31;1758891;80;20912;-81
2022/04/24 05:53:27;;;;;;;7.72;7.03;;;;;;;21.55;44.11;100270.48;1758539;81;20888;-82
2022/04/24 05:55:57;;;;;;;7.28;6.65;;;;;;;21.62;43.61;100269.61;1758391;81;21381;-80
2022/04/24 05:58:23;;;;;;;9.00;7.17;;;;;;;21.70;43.56;100273.59;1758782;81;20940;-81
2022/04/24 06:00:51;;;;;;;7.95;6.95;;;;;;;21.82;43.12;100267.36;1756544;80;20924;-80
2022/04/24 06:03:19;;;;;;;6.65;6.00;;;;;;;21.90;42.72;100266.50;1758553;81;20857;-81
2022/04/24 06:05:48;;;;;;;8.28;6.40;;;;;;;21.96;42.55;100267.12;1750425;81;20893;-81
2022/04/24 06:08:15;;;;;;;9.68;7.45;;;;;;;22.06;42.18;100266.91;1745277;81;21080;-79
2022/04/24 06:10:43;;;;;;;10.45;5.97;;;;;;;22.07;41.65;100272.06;1745436;81;20971;-82
2022/04/24 06:13:11;;;;;;;9.98;6.78;;;;;;;22.06;41.13;100270.92;1745426;81;21109;-80
2022/04/24 06:15:39;;;;;;;8.20;7.05;;;;;;;22.10;40.93;100267.72;1745641;81;20889;-80
2022/04/24 06:18:06;;;;;;;9.05;7.50;;;;;;;22.09;41.36;100275.39;1745111;81;21485;-83
2022/04/24 06:20:34;;;;;;;13.62;8.70;;;;;;;22.15;41.05;100265.86;1744872;81;21655;-82
2022/04/24 06:23:01;;;;;;;10.08;8.70;;;;;;;22.29;41.31;100267.78;1744806;80;20861;-84
2022/04/24 06:25:32;;;;;;;12.43;8.65;;;;;;;22.49;41.21;100261.98;1746617;81;21194;-80
2022/04/24 06:28:01;;;;;;;10.25;8.53;;;;;;;22.60;40.40;100266.91;1747129;82;20936;-81
2022/04/24 06:30:35;;;;;;;12.90;8.50;;;;;;;22.72;40.66;100261.95;1759480;81;21414;-80
2022/04/24 06:33:02;;;;;;;12.78;8.90;;;;;;;22.94;40.67;100269.13;1715260;82;21028;-80
2022/04/24 06:35:29;;;;;;;13.90;8.60;;;;;;;23.24;40.02;100268.38;1729376;82;20861;-79
2022/04/24 06:37:58;;;;;;;11.73;8.98;;;;;;;23.44;39.76;100272.67;1715355;82;20924;-79
2022/04/24 06:40:26;;;;;;;13.05;7.05;;;;;;;23.75;39.63;100265.80;1715379;82;20979;-81
2022/04/24 06:42:58;;;;;;;9.75;7.78;;;;;;;24.07;38.88;100269.05;1715643;82;20976;-82
2022/04/24 06:45:34;;;;;;;9.90;7.00;;;;;;;24.19;38.16;100264.36;1716003;83;20987;-81
2022/04/24 06:48:06;;;;;;;9.18;6.03;;;;;;;24.26;37.76;100263.09;1716246;82;21031;-81
2022/04/24 06:50:34;;;;;;;8.10;5.28;;;;;;;24.28;37.14;100263.73;1716668;82;20940;-81
2022/04/24 06:53:20;;;;;;;9.15;6.17;;;;;;;24.28;36.92;100261.54;1716575;83;20932;-81
2022/04/24 06:55:48;;;;;;;9.08;5.58;;;;;;;24.33;36.84;100256.45;1716232;82;20942;-80
2022/04/24 06:58:18;;;;;;;8.88;6.37;;;;;;;24.36;37.14;100256.89;1716195;82;21098;-79
2022/04/24 07:00:45;;;;;;;7.00;5.97;;;;;;;24.52;37.50;100257.69;1716167;83;20912;-81
2022/04/24 07:03:18;;;;;;;8.75;5.95;;;;;;;24.76;36.80;100254.59;1716425;82;20988;-82
2022/04/24 07:05:45;;;;;;;8.48;6.35;;;;;;;24.96;36.33;100256.61;1682551;84;20912;-82
2022/04/24 07:08:12;;;;;;;8.55;5.92;;;;;;;24.94;36.27;100248.75;1681843;85;21022;-81
2022/04/24 07:10:39;;;;;;;8.93;5.90;;;;;;;24.95;36.74;100252.28;1682435;85;20912;-83
2022/04/24 07:13:06;;;;;;;6.97;4.95;;;;;;;25.17;36.96;100254.40;1716267;82;20992;-81
2022/04/24 07:15:36;;;;;;;9.05;4.90;;;;;;;25.47;37.21;100255.00;1716459;82;20968;-81
2022/04/24 07:18:03;;;;;;;7.10;5.20;;;;;;;25.80;36.73;100262.39;1717380;82;21015;-80
2022/04/24 07:20:30;;;;;;;6.92;4.83;;;;;;;26.09;35.71;100262.61;1716828;82;20905;-82
2022/04/24 07:23:02;;;;;;;6.80;4.80;;;;;;;26.09;35.21;100272.55;1717288;82;20960;-80
2022/04/24 07:25:35;;;;;;;6.33;4.90;;;;;;;26.09;34.96;100279.27;1717175;82;20881;-80
2022/04/24 07:28:03;;;;;;;5.75;4.42;;;;;;;26.18;34.82;100270.80;1715766;82;20920;-80
2022/04/24 07:30:32;;;;;;;6.92;3.42;;;;;;;26.30;34.91;100268.34;1716061;82;20932;-81
2022/04/24 07:33:00;;;;;;;3.65;2.90;;;;;;;26.39;34.26;100268.48;1715253;82;20908;-80
2022/04/24 07:35:30;;;;;;;6.03;4.20;;;;;;;26.43;34.65;100271.58;1715132;82;20960;-81
2022/04/24 07:37:57;;;;;;;4.72;3.33;;;;;;;26.67;34.07;100269.66;1708635;82;20897;-82
2022/04/24 07:40:27;;;;;;;5.72;3.60;;;;;;;26.77;33.54;100270.61;1707056;84;21165;-83
2022/04/24 07:42:56;;;;;;;8.18;5.33;;;;;;;26.64;32.98;100268.73;1706913;84;20944;-80
2022/04/24 07:45:26;;;;;;;8.03;4.70;;;;;;;26.43;33.38;100265.67;1706928;84;20948;-81
2022/04/24 07:47:54;;;;;;;6.55;4.12;;;;;;;26.33;33.86;100265.26;1707145;84;21402;-81
2022/04/24 07:50:25;;;;;;;7.47;3.67;;;;;;;26.41;33.58;100269.11;1707259;82;21008;-82
2022/04/24 07:52:51;;;;;;;7.25;3.98;;;;;;;26.46;33.82;100267.15;1707442;83;21383;-82
2022/04/24 07:55:24;;;;;;;3.00;2.62;;;;;;;26.57;33.50;100268.41;1707404;84;20937;-81
2022/04/24 07:57:53;;;;;;;3.27;2.87;;;;;;;26.55;33.59;100273.16;1707150;82;20893;-83
2022/04/24 08:00:22;;;;;;;6.42;3.55;;;;;;;26.52;34.13;100265.48;1707328;84;21370;-82
2022/04/24 08:02:56;;;;;;;5.03;3.87;;;;;;;26.57;33.89;100261.69;1707229;83;20865;-83
2022/04/24 08:05:24;;;;;;;;;;;;;;;26.72;34.49;100253.42;1711378;83;22203;-81
2022/04/24 08:07:52;;;;;;;6.45;3.22;;;;;;;26.95;34.42;100256.53;1720569;82;20089;-82
2022/04/24 08:10:20;;;;;;;4.87;3.15;;;;;;;27.17;32.59;100260.31;1720419;83;20852;-81
2022/04/24 08:12:49;;;;;;;6.33;3.85;;;;;;;27.12;32.09;100273.05;1720765;83;20959;-81
2022/04/24 08:15:17;;;;;;;5.95;2.87;;;;;;;26.95;32.62;100265.13;1720483;83;20940;-81
2022/04/24 08:17:45;;;;;;;6.45;2.87;;;;;;;26.90;33.17;100262.21;1720574;83;21486;-80
2022/04/24 08:20:15;;;;;;;5.37;3.00;;;;;;;27.06;33.97;100266.66;1720790;83;21072;-81
2022/04/24 08:22:44;;;;;;;4.08;2.67;;;;;;;27.21;33.12;100267.81;1720498;83;20948;-81
2022/04/24 08:25:13;;;;;;;4.35;2.52;;;;;;;27.03;33.49;100269.75;1720600;83;20908;-83
2022/04/24 08:27:42;;;;;;;4.50;3.67;;;;;;;26.72;33.58;100272.25;1720676;83;20885;-81
2022/04/24 08:30:11;;;;;;;6.53;3.55;;;;;;;26.46;34.28;100267.15;1720362;82;20896;-84
2022/04/24 08:32:39;;;;;;;6.40;4.00;;;;;;;26.09;34.23;100269.34;1720670;83;20956;-82
2022/04/24 08:35:08;;;;;;;5.45;3.80;;;;;;;25.59;34.80;100264.16;1720701;83;20952;-82
2022/04/24 08:37:35;;;;;;;9.53;5.80;;;;;;;25.10;35.94;100273.14;1720694;83;20916;-81
2022/04/24 08:40:05;;;;;;;7.53;4.58;;;;;;;24.90;37.07;100266.77;1671921;83;21354;-82
2022/04/24 08:42:33;;;;;;;11.78;4.25;;;;;;;24.80;37.66;100268.46;1721111;83;21274;-84
2022/04/24 08:45:00;;;;;;;5.03;4.22;;;;;;;24.90;36.91;100269.45;1720944;83;20892;-82
2022/04/24 08:47:27;;;;;;;6.72;4.25;;;;;;;25.01;36.93;100272.94;1721500;83;20904;-82
2022/04/24 08:50:00;;;;;;;10.80;3.45;;;;;;;25.06;37.09;100271.02;1721024;83;20979;-85
2022/04/24 08:52:28;;;;;;;6.53;3.80;;;;;;;25.01;37.05;100266.23;1721355;83;21413;-81
2022/04/24 08:54:56;;;;;;;6.25;4.03;;;;;;;24.92;36.82;100260.21;1721946;83;21744;-83
2022/04/24 08:57:30;;;;;;;21.97;13.93;;;;;;;24.79;36.63;100264.95;1721084;83;20947;-83
2022/04/24 08:59:59;;;;;;;7.65;5.08;;;;;;;24.38;37.17;100258.86;1721461;82;20904;-82
2022/04/24 09:02:27;;;;;;;8.45;5.45;;;;;;;24.35;38.20;100256.58;1721344;83;20928;-82
2022/04/24 09:04:54;;;;;;;5.50;3.98;;;;;;;24.60;38.09;100257.05;1720817;83;21011;-82
2022/04/24 09:07:21;;;;;;;5.62;3.67;;;;;;;24.70;37.17;100258.08;1720629;83;21108;-82
2022/04/24 09:09:50;;;;;;;7.85;3.67;;;;;;;24.73;37.17;100260.36;1720557;83;20935;-82
2022/04/24 09:12:24;;;;;;;5.53;4.20;;;;;;;24.77;38.25;100259.47;1720543;82;20856;-81
2022/04/24 09:14:54;;;;;;;7.92;5.22;;;;;;;24.74;37.32;100256.64;1720295;83;21378;-82
2022/04/24 09:17:27;;;;;;;10.32;5.75;;;;;;;24.55;37.13;100259.48;1720728;83;20900;-83
2022/04/24 09:19:56;;;;;;;8.33;5.08;;;;;;;24.32;37.67;100257.45;1720668;83;20976;-83
2022/04/24 09:22:24;;;;;;;8.05;5.17;;;;;;;24.06;38.33;100257.52;1720691;83;20943;-81
2022/04/24 09:24:55;;;;;;;12.35;6.67;;;;;;;23.76;38.45;100266.11;1721993;83;20963;-82
2022/04/24 09:27:35;;;;;;;9.88;5.28;;;;;;;23.45;39.01;100267.63;1720435;82;21006;-83
2022/04/24 09:30:14;;;;;;;12.28;4.58;;;;;;;23.15;39.42;100265.77;1720803;82;20923;-81
2022/04/24 09:32:55;;;;;;;9.58;4.70;;;;;;;22.76;40.20;100270.77;1720578;82;21323;-81
2022/04/24 09:35:36;;;;;;;5.80;4.22;;;;;;;22.39;40.85;100271.58;1720493;83;20904;-83
2022/04/24 09:38:10;;;;;;;8.53;4.47;;;;;;;22.13;41.55;100264.69;1720908;83;21034;-83
2022/04/24 09:40:45;;;;;;;9.65;5.85;;;;;;;22.02;42.52;100262.42;1720662;83;21062;-81
2022/04/24 09:43:14;;;;;;;9.98;8.30;;;;;;;22.04;42.62;100260.41;1720748;82;20927;-81
2022/04/24 09:45:41;;;;;;;8.75;5.97;;;;;;;22.11;42.45;100262.70;1720530;82;21258;-83
2022/04/24 09:48:18;;;;;;;17.55;12.80;;;;;;;22.14;42.81;100258.36;1720593;83;20932;-82
2022/04/24 09:50:45;;;;;;;11.65;7.62;;;;;;;22.17;42.73;100265.18;1720864;83;20976;-83
2022/04/24 09:53:15;;;;;;;10.82;8.20;;;;;;;22.09;42.38;100258.55;1720907;83;20979;-82
2022/04/24 09:55:43;;;;;;;12.80;7.20;;;;;;;21.92;42.60;100261.80;1721219;82;21539;-83
2022/04/24 09:58:12;;;;;;;18.30;9.80;;;;;;;21.79;43.07;100267.72;1720829;82;21290;-82
2022/04/24 10:00:44;;;;;;;12.23;7.10;;;;;;;21.69;43.21;100272.42;1720829;83;20884;-83
2022/04/24 10:03:16;;;;;;;22.05;17.98;;;;;;;21.59;43.54;100273.11;1720943;82;20928;-82
2022/04/24 10:05:47;;;;;;;10.68;7.47;;;;;;;21.48;44.58;100273.84;1721196;83;20948;-83
2022/04/24 10:08:18;;;;;;;13.78;7.55;;;;;;;21.31;44.19;100270.34;1708175;83;21016;-82
2022/04/24 10:10:45;;;;;;;15.32;11.20;;;;;;;21.20;44.76;100273.36;1707372;82;21892;-84
2022/04/24 10:13:15;;;;;;;40.60;28.35;;;;;;;21.17;45.19;100270.22;1707773;82;21157;-82
2022/04/24 10:15:51;;;;;;;25.40;18.50;;;;;;;21.30;45.17;100268.69;1707399;84;20945;-83
2022/04/24 10:18:43;;;;;;;12.18;9.20;;;;;;;21.55;45.11;100271.82;1678769;84;20893;-81
2022/04/24 10:21:43;;;;;;;10.60;6.22;;;;;;;21.88;44.31;100270.67;1707076;84;20896;-83
2022/04/24 10:24:12;;;;;;;10.23;8.08;;;;;;;22.11;43.36;100268.55;1707554;82;21172;-84
2022/04/24 10:26:39;;;;;;;13.53;7.25;;;;;;;22.20;43.45;100274.16;1707414;82;20925;-82
2022/04/24 10:29:09;;;;;;;9.30;5.35;;;;;;;22.32;42.97;100268.79;1707403;83;20884;-80
2022/04/24 10:31:43;;;;;;;8.03;5.00;;;;;;;22.49;42.72;100271.34;1707434;84;20948;-82
2022/04/24 10:34:11;;;;;;;10.93;5.22;;;;;;;22.59;43.02;100263.06;1708607;83;20901;-83
2022/04/24 10:36:52;;;;;;;10.78;4.67;;;;;;;22.78;41.86;100255.89;1708068;84;21223;-83
2022/04/24 10:39:25;;;;;;;12.58;8.90;;;;;;;22.89;41.90;100262.66;1712633;83;20878;-77
2022/04/24 10:42:12;;;;;;;12.13;8.13;;;;;;;23.05;42.55;100263.86;1709960;82;20932;-79
2022/04/24 10:44:54;;;;;;;10.18;6.55;;;;;;;23.27;42.15;100266.66;1708293;84;20916;-79
2022/04/24 10:47:22;;;;;;;7.70;5.30;;;;;;;23.51;41.79;100266.89;1708467;84;20976;-83
2022/04/24 10:49:52;;;;;;;8.30;6.65;;;;;;;23.63;41.87;100272.60;1708257;84;21237;-80
2022/04/24 10:52:19;;;;;;;9.48;7.55;;;;;;;23.59;41.44;100271.64;1687108;84;21381;-80
2022/04/24 10:54:47;;;;;;;10.32;5.70;;;;;;;23.51;41.54;100273.59;1707996;82;20960;-81
2022/04/24 10:57:19;;;;;;;10.18;4.87;;;;;;;23.35;41.34;100281.30;1707659;82;20904;-81
2022/04/24 10:59:55;;;;;;;7.03;4.58;;;;;;;23.23;41.60;100276.88;1707875;83;20981;-80
2022/04/24 11:02:33;;;;;;;15.72;7.75;;;;;;;23.09;41.69;100281.20;1707962;82;20972;-82
2022/04/24 11:05:06;;;;;;;9.90;7.12;;;;;;;23.00;42.24;100285.48;1707647;82;20888;-81
2022/04/24 11:07:34;;;;;;;9.15;5.80;;;;;;;22.97;42.79;100275.95;1717077;83;21410;-81
2022/04/24 11:10:04;;;;;;;9.40;6.05;;;;;;;22.97;42.86;100271.95;1721422;82;21417;-83
2022/04/24 11:12:33;;;;;;;10.60;6.33;;;;;;;22.94;42.78;100276.30;1721621;83;21019;-81
2022/04/24 11:15:12;;;;;;;11.97;5.80;;;;;;;22.83;42.78;100277.56;1721299;82;20853;-82
2022/04/24 11:17:39;;;;;;;14.60;6.17;;;;;;;22.61;42.48;100272.59;1721486;82;20931;-81
2022/04/24 11:20:13;;;;;;;8.38;6.92;;;;;;;22.40;43.14;100271.07;1721470;83;21445;-82
2022/04/24 11:22:50;;;;;;;14.83;8.75;;;;;;;22.17;43.57;100266.52;1721632;83;21405;-83
2022/04/24 11:25:22;;;;;;;7.22;5.67;;;;;;;22.00;44.34;100268.95;1721520;83;20848;-82
2022/04/24 11:27:56;;;;;;;9.00;5.30;;;;;;;21.80;44.89;100270.70;1721466;83;21253;-81
2022/04/24 11:30:37;;;;;;;10.18;5.25;;;;;;;21.59;45.32;100267.30;1721114;83;21961;-83
2022/04/24 11:33:06;;;;;;;9.65;5.92;;;;;;;21.40;45.70;100266.33;1720847;83;20999;-82
2022/04/24 11:35:37;;;;;;;11.57;6.00;;;;;;;21.24;46.04;100257.86;1721296;83;21019;-80